Time;durP1;ratioP1;P1;durP2;ratioP2;P2;SDS_P1;SDS_P2;PMS_P1;PMS_P2;Temp;Humidity;BMP_temperature;BMP_pressure;BME280_temperature;BME280_humidity;BME280_pressure;Samples;Min_cycle;Max_cycle;Signal;HPM_P1;HPM_P2
2023/09/28 00:00:35;;;;;;;5.53;4.63;;;18.70;1.00;;;;;;5133192;28;20455;-61
2023/09/28 00:02:45;;;;;;;5.43;4.60;;;18.70;1.00;;;;;;5132760;28;20490;-62
2023/09/28 00:05:15;;;;;;;5.33;4.83;;;18.70;1.00;;;;;;5133343;28;20459;-61
2023/09/28 00:07:42;;;;;;;6.10;4.90;;;18.70;1.00;;;;;;5134151;28;20481;-62
2023/09/28 00:10:12;;;;;;;5.27;4.30;;;18.70;1.00;;;;;;5134763;27;20455;-62
2023/09/28 00:12:40;;;;;;;5.80;4.60;;;18.80;1.00;;;;;;5134708;28;20458;-62
2023/09/28 00:15:09;;;;;;;4.50;4.10;;;18.80;1.00;;;;;;5121852;28;20455;-61
2023/09/28 00:17:38;;;;;;;4.93;4.43;;;18.80;1.00;;;;;;5120424;27;20464;-62
2023/09/28 00:20:09;;;;;;;5.73;4.70;;;18.80;1.00;;;;;;5120684;28;20750;-62
2023/09/28 00:22:37;;;;;;;5.53;5.03;;;18.80;1.00;;;;;;5120331;28;20491;-62
2023/09/28 00:25:09;;;;;;;4.50;4.10;;;18.80;1.00;;;;;;5120501;28;20759;-62
2023/09/28 00:27:35;;;;;;;5.47;4.60;;;18.70;1.00;;;;;;5120338;28;20481;-62
2023/09/28 00:30:04;;;;;;;6.00;4.33;;;18.70;1.00;;;;;;5120753;28;20807;-62
2023/09/28 00:32:31;;;;;;;5.40;4.77;;;18.70;1.00;;;;;;5120614;28;20456;-62
2023/09/28 00:34:58;;;;;;;5.03;4.43;;;18.60;1.00;;;;;;5120537;28;20455;-62
2023/09/28 00:37:24;;;;;;;5.53;5.03;;;18.50;1.00;;;;;;5119947;28;20512;-62
2023/09/28 00:39:55;;;;;;;5.63;4.60;;;18.40;1.00;;;;;;5119801;28;20550;-62
2023/09/28 00:42:22;;;;;;;6.20;5.27;;;18.40;1.00;;;;;;5119454;28;20531;-62
2023/09/28 00:44:49;;;;;;;6.20;4.70;;;18.50;1.00;;;;;;5120442;28;20785;-62
2023/09/28 00:47:15;;;;;;;5.13;4.63;;;18.50;1.00;;;;;;5119876;28;20508;-62
2023/09/28 00:49:43;;;;;;;5.47;4.93;;;18.50;1.00;;;;;;5120202;28;20802;-62
2023/09/28 00:52:11;;;;;;;5.90;4.77;;;18.50;1.00;;;;;;5120291;28;20857;-62
2023/09/28 00:54:39;;;;;;;4.47;4.07;;;18.40;1.00;;;;;;5120250;28;20463;-62
2023/09/28 00:57:07;;;;;;;9.80;4.40;;;18.30;1.00;;;;;;5119406;28;20931;-61
2023/09/28 00:59:34;;;;;;;6.20;5.60;;;18.10;99.90;;;;;;5118874;28;20489;-62
2023/09/28 01:02:00;;;;;;;5.30;4.80;;;18.10;99.90;;;;;;5118714;28;20795;-62
2023/09/28 01:04:28;;;;;;;5.40;5.00;;;18.10;99.90;;;;;;5119981;28;20811;-62
2023/09/28 01:06:54;;;;;;;5.47;5.00;;;18.10;99.90;;;;;;5119376;28;20528;-62
2023/09/28 01:09:24;;;;;;;4.90;4.40;;;17.90;99.90;;;;;;5118790;28;20489;-61
2023/09/28 01:11:51;;;;;;;5.33;4.83;;;17.90;99.90;;;;;;5119891;28;20459;-62
2023/09/28 01:14:21;;;;;;;5.90;4.87;;;17.90;99.90;;;;;;5119623;28;20456;-62
2023/09/28 01:16:47;;;;;;;4.90;4.40;;;17.90;99.90;;;;;;5119881;28;20456;-62
2023/09/28 01:19:14;;;;;;;4.83;4.43;;;17.90;99.90;;;;;;5119464;28;20954;-62
2023/09/28 01:21:41;;;;;;;5.37;4.87;;;17.90;99.90;;;;;;5119110;28;20460;-62
2023/09/28 01:24:10;;;;;;;5.20;4.70;;;18.00;99.90;;;;;;5119569;28;20483;-62
2023/09/28 01:26:36;;;;;;;5.03;4.53;;;18.00;99.90;;;;;;5118505;28;20491;-62
2023/09/28 01:29:05;;;;;;;5.40;4.90;;;18.10;67.40;;;;;;5119310;27;20927;-62
2023/09/28 01:31:32;;;;;;;4.70;4.30;;;18.10;99.90;;;;;;5119019;28;20887;-62
2023/09/28 01:33:59;;;;;;;5.20;4.70;;;18.00;99.90;;;;;;5119192;28;20847;-62
2023/09/28 01:36:25;;;;;;;5.70;4.80;;;18.00;99.90;;;;;;5119060;28;20550;-62
2023/09/28 01:38:58;;;;;;;5.73;4.60;;;18.00;99.90;;;;;;5118961;28;20491;-62
2023/09/28 01:41:28;;;;;;;5.70;4.70;;;18.10;48.40;;;;;;5118681;27;20466;-62
2023/09/28 01:43:56;;;;;;;4.87;4.47;;;18.00;99.90;;;;;;5118603;28;20461;-62
2023/09/28 01:46:22;;;;;;;4.40;3.90;;;17.90;99.90;;;;;;5119350;28;20451;-62
2023/09/28 01:48:49;;;;;;;5.67;5.07;;;17.80;99.90;;;;;;5118988;28;20546;-62
2023/09/28 01:51:15;;;;;;;5.70;5.20;;;17.80;99.90;;;;;;5118650;28;20441;-62
2023/09/28 01:53:42;;;;;;;6.20;4.67;;;17.80;99.90;;;;;;5118615;28;20460;-62
2023/09/28 01:56:08;;;;;;;5.33;4.70;;;17.80;99.90;;;;;;5118837;28;20512;-62
2023/09/28 01:58:37;;;;;;;5.27;4.80;;;17.70;99.90;;;;;;5118657;28;20455;-62
2023/09/28 02:01:03;;;;;;;6.20;5.60;;;17.80;99.90;;;;;;5118152;28;20551;-62
2023/09/28 02:03:31;;;;;;;5.80;5.17;;;17.80;99.90;;;;;;5118212;28;20498;-62
2023/09/28 02:05:57;;;;;;;4.93;4.43;;;17.80;99.90;;;;;;5118332;28;20434;-62
2023/09/28 02:08:24;;;;;;;6.53;4.97;;;17.70;99.90;;;;;;5118047;28;20487;-61
2023/09/28 02:10:50;;;;;;;5.27;4.77;;;17.70;99.90;;;;;;5117695;28;20551;-61
2023/09/28 02:13:17;;;;;;;5.50;4.90;;;17.70;99.90;;;;;;5118251;28;20888;-62
2023/09/28 02:15:45;;;;;;;5.10;4.60;;;17.70;99.90;;;;;;5118240;28;20824;-62
2023/09/28 02:18:12;;;;;;;5.50;4.93;;;17.60;99.90;;;;;;5118376;28;20517;-62
2023/09/28 02:20:39;;;;;;;6.13;5.00;;;17.70;99.90;;;;;;5118251;28;20463;-62
2023/09/28 02:23:09;;;;;;;5.40;4.90;;;17.70;99.90;;;;;;5118145;28;20491;-62
2023/09/28 02:25:35;;;;;;;6.50;5.67;;;17.70;99.90;;;;;;5117948;28;20512;-62
2023/09/28 02:28:02;;;;;;;5.80;4.67;;;17.70;99.90;;;;;;5118498;28;20888;-57
2023/09/28 02:30:28;;;;;;;5.50;5.00;;;17.60;99.90;;;;;;5117935;28;20652;-56
2023/09/28 02:32:57;;;;;;;5.30;4.80;;;17.60;99.90;;;;;;5117703;28;20451;-57
2023/09/28 02:35:24;;;;;;;5.53;4.70;;;17.60;99.90;;;;;;5117683;28;20583;-56
2023/09/28 02:37:51;;;;;;;7.13;4.50;;;17.60;99.90;;;;;;5117731;28;20887;-57
2023/09/28 02:40:19;;;;;;;7.17;5.03;;;17.60;99.90;;;;;;5117954;28;20459;-57
2023/09/28 02:42:48;;;;;;;5.80;5.20;;;17.60;99.90;;;;;;5118011;28;20513;-58
2023/09/28 02:45:15;;;;;;;5.60;5.17;;;17.60;99.90;;;;;;5117994;28;20490;-57
2023/09/28 02:47:43;;;;;;;5.37;4.60;;;17.60;99.90;;;;;;5117735;28;20508;-56
2023/09/28 02:50:13;;;;;;;5.43;4.93;;;17.50;99.90;;;;;;5117513;28;20459;-54
2023/09/28 02:52:40;;;;;;;5.40;4.90;;;17.40;1.00;;;;;;5116614;28;20509;-56
2023/09/28 02:55:09;;;;;;;5.90;5.40;;;17.40;1.00;;;;;;5116038;28;20455;-57
2023/09/28 02:57:36;;;;;;;7.37;4.90;;;17.40;1.00;;;;;;5116120;28;20463;-57
2023/09/28 03:00:16;;;;;;;5.47;4.70;;;17.40;1.00;;;;;;5116034;28;20538;-58
2023/09/28 03:02:42;;;;;;;5.07;4.60;;;17.40;1.00;;;;;;5115975;28;20834;-58
2023/09/28 03:05:11;;;;;;;5.07;4.57;;;17.20;1.00;;;;;;5115763;28;20872;-56
2023/09/28 03:07:39;;;;;;;6.03;5.53;;;17.30;1.00;;;;;;5116816;28;20758;-57
2023/09/28 03:10:10;;;;;;;5.30;4.80;;;17.40;99.90;;;;;;5116260;28;20456;-58
2023/09/28 03:12:36;;;;;;;5.03;4.53;;;17.40;99.90;;;;;;5115992;28;20787;-57
2023/09/28 03:15:07;;;;;;;5.00;4.50;;;17.40;99.90;;;;;;5115782;28;20470;-57
2023/09/28 03:17:34;;;;;;;4.90;4.30;;;17.40;99.90;;;;;;5115633;28;20459;-58
2023/09/28 03:20:03;;;;;;;5.07;4.57;;;17.40;99.90;;;;;;5116164;28;20991;-55
2023/09/28 03:22:30;;;;;;;4.97;4.53;;;17.30;99.90;;;;;;5115987;28;20459;-54
2023/09/28 03:24:57;;;;;;;5.60;5.00;;;17.30;1.00;;;;;;5117291;28;20789;-55
2023/09/28 03:27:23;;;;;;;4.90;4.50;;;17.30;1.00;;;;;;5117280;28;20540;-52
2023/09/28 03:29:52;;;;;;;5.30;4.80;;;17.20;1.00;;;;;;5117763;28;20486;-57
2023/09/28 03:32:18;;;;;;;7.10;5.00;;;17.30;1.00;;;;;;5117769;28;20887;-54
2023/09/28 03:34:45;;;;;;;7.73;5.20;;;17.30;99.90;;;;;;5117444;28;20457;-57
2023/09/28 03:37:18;;;;;;;4.87;4.43;;;17.20;1.00;;;;;;5117199;28;20816;-54
2023/09/28 03:39:49;;;;;;;5.10;4.43;;;17.30;99.90;;;;;;5117548;28;20459;-57
2023/09/28 03:42:16;;;;;;;5.13;4.73;;;17.30;99.90;;;;;;5117429;28;20459;-56
2023/09/28 03:44:43;;;;;;;5.97;4.53;;;17.20;99.90;;;;;;5117475;28;20624;-55
2023/09/28 03:47:11;;;;;;;5.77;5.20;;;17.20;1.00;;;;;;5116855;28;20487;-55
2023/09/28 03:49:38;;;;;;;5.97;4.90;;;17.10;1.00;;;;;;5119169;28;20766;-55
2023/09/28 03:52:05;;;;;;;6.40;4.90;;;17.00;1.00;;;;;;5121239;28;20726;-57
2023/09/28 03:54:32;;;;;;;6.77;4.87;;;17.00;1.00;;;;;;5121072;28;20453;-58
2023/09/28 03:57:01;;;;;;;6.30;5.70;;;16.90;1.00;;;;;;5121092;28;20465;-56
2023/09/28 03:59:28;;;;;;;5.80;5.10;;;17.00;1.00;;;;;;5120869;28;20497;-58
2023/09/28 04:01:55;;;;;;;5.23;4.80;;;16.90;1.00;;;;;;5120298;28;20566;-55
2023/09/28 04:04:22;;;;;;;5.23;4.83;;;16.90;1.00;;;;;;5120847;28;20493;-57
2023/09/28 04:06:50;;;;;;;5.43;4.80;;;17.00;1.00;;;;;;5120395;28;20434;-57
2023/09/28 04:09:17;;;;;;;5.23;4.73;;;17.00;1.00;;;;;;5118303;28;20486;-58
2023/09/28 04:11:44;;;;;;;6.70;5.90;;;16.90;1.00;;;;;;5118750;27;20489;-51
2023/09/28 04:14:14;;;;;;;5.97;5.40;;;16.90;1.00;;;;;;5119071;28;20737;-56
2023/09/28 04:16:41;;;;;;;6.23;5.63;;;16.80;1.00;;;;;;5119025;28;20456;-54
2023/09/28 04:19:08;;;;;;;6.50;5.60;;;16.70;1.00;;;;;;5118801;28;20485;-57
2023/09/28 04:21:35;;;;;;;5.87;5.37;;;16.60;1.00;;;;;;5118868;28;20453;-57
2023/09/28 04:24:03;;;;;;;6.83;4.83;;;16.60;1.00;;;;;;5118636;28;20494;-56
2023/09/28 04:26:30;;;;;;;5.43;4.80;;;16.60;14.20;;;;;;5118900;28;20462;-54
2023/09/28 04:28:57;;;;;;;6.67;5.63;;;16.50;1.00;;;;;;5118767;28;20454;-58
2023/09/28 04:31:26;;;;;;;6.10;5.50;;;16.50;8.10;;;;;;5118829;28;20635;-57
2023/09/28 04:33:53;;;;;;;6.60;6.00;;;16.60;1.00;;;;;;5118524;28;20495;-57
2023/09/28 04:36:20;;;;;;;8.00;5.90;;;16.60;1.00;;;;;;5118969;28;20449;-57
2023/09/28 04:38:49;;;;;;;5.70;5.20;;;16.60;1.00;;;;;;5119473;28;20494;-58
2023/09/28 04:41:17;;;;;;;6.97;5.53;;;16.60;1.00;;;;;;5119843;28;20466;-56
2023/09/28 04:43:44;;;;;;;7.10;6.40;;;16.60;1.00;;;;;;5120086;28;20527;-58
2023/09/28 04:46:12;;;;;;;7.33;5.70;;;16.60;1.00;;;;;;5120042;28;20459;-56
2023/09/28 04:48:41;;;;;;;7.80;5.37;;;16.60;1.00;;;;;;5120071;28;20438;-57
2023/09/28 04:51:09;;;;;;;6.40;5.50;;;16.50;40.60;;;;;;5119882;28;20498;-57
2023/09/28 04:53:36;;;;;;;6.73;5.40;;;16.40;74.10;;;;;;5119830;28;20455;-56
2023/09/28 04:56:10;;;;;;;7.93;5.93;;;16.40;99.90;;;;;;5119882;28;20733;-57
2023/09/28 04:58:38;;;;;;;7.13;6.20;;;16.30;99.90;;;;;;5119932;28;20808;-58
2023/09/28 05:01:05;;;;;;;9.80;6.50;;;16.30;99.90;;;;;;5119439;28;20824;-57
2023/09/28 05:03:33;;;;;;;6.87;6.27;;;16.20;99.90;;;;;;5119497;28;20499;-57
2023/09/28 05:06:01;;;;;;;10.53;5.67;;;16.10;99.90;;;;;;5119703;28;20555;-58
2023/09/28 05:08:29;;;;;;;7.63;6.83;;;16.10;99.90;;;;;;5119176;28;20483;-56
2023/09/28 05:10:57;;;;;;;6.03;5.43;;;16.00;99.90;;;;;;5119296;28;20554;-52
2023/09/28 05:13:25;;;;;;;6.33;5.67;;;16.00;99.90;;;;;;5119355;28;20515;-57
2023/09/28 05:15:52;;;;;;;5.87;5.27;;;15.90;99.90;;;;;;5119653;28;20456;-57
2023/09/28 05:18:21;;;;;;;6.50;5.90;;;15.90;99.90;;;;;;5119164;28;20460;-56
2023/09/28 05:20:48;;;;;;;6.20;5.57;;;15.80;99.90;;;;;;5119769;28;20550;-57
2023/09/28 05:23:17;;;;;;;6.00;5.50;;;15.70;99.90;;;;;;5118788;28;20550;-55
2023/09/28 05:25:44;;;;;;;7.63;6.60;;;15.50;1.00;;;;;;5119340;28;20462;-56
2023/09/28 05:28:11;;;;;;;7.63;6.17;;;15.40;1.00;;;;;;5119078;28;20456;-55
2023/09/28 05:30:38;;;;;;;8.43;6.80;;;15.30;1.00;;;;;;5119328;28;20456;-56
2023/09/28 05:33:06;;;;;;;7.53;6.00;;;15.30;1.00;;;;;;5119013;28;20962;-56
2023/09/28 05:35:33;;;;;;;13.10;6.43;;;15.20;1.00;;;;;;5118631;28;20456;-57
2023/09/28 05:38:00;;;;;;;8.80;6.60;;;15.20;1.00;;;;;;5118593;28;20508;-57
2023/09/28 05:40:30;;;;;;;6.67;5.87;;;15.30;1.00;;;;;;5118986;28;20806;-57
2023/09/28 05:42:58;;;;;;;8.70;6.07;;;15.30;1.00;;;;;;5118470;28;20429;-55
2023/09/28 05:45:25;;;;;;;6.90;6.20;;;15.40;1.00;;;;;;5118700;28;20938;-58
2023/09/28 05:47:52;;;;;;;9.13;6.40;;;15.40;1.00;;;;;;5117092;28;20892;-57
2023/09/28 05:50:19;;;;;;;6.77;6.10;;;15.40;1.00;;;;;;5118285;27;20558;-58
2023/09/28 05:52:52;;;;;;;7.03;5.80;;;15.40;1.00;;;;;;5118967;28;20455;-57
2023/09/28 05:55:19;;;;;;;6.53;5.93;;;15.40;1.00;;;;;;5118618;28;20887;-57
2023/09/28 05:57:48;;;;;;;7.73;6.93;;;15.40;1.00;;;;;;5118773;28;20566;-56
2023/09/28 06:00:17;;;;;;;6.97;6.20;;;15.40;1.00;;;;;;5119023;28;20541;-58
2023/09/28 06:02:44;;;;;;;7.50;6.17;;;15.50;1.00;;;;;;5118165;28;20483;-56
2023/09/28 06:05:11;;;;;;;10.00;6.70;;;15.50;1.00;;;;;;5103476;28;20892;-58
2023/09/28 06:07:38;;;;;;;9.20;6.80;;;15.40;1.00;;;;;;5098127;28;20488;-58
2023/09/28 06:10:08;;;;;;;7.27;5.80;;;15.50;1.00;;;;;;5098307;28;20551;-58
2023/09/28 06:12:35;;;;;;;9.83;6.47;;;15.50;1.00;;;;;;5097385;28;20461;-58
2023/09/28 06:15:07;;;;;;;7.50;6.77;;;15.60;1.00;;;;;;5097146;28;20555;-58
2023/09/28 06:17:35;;;;;;;7.90;7.10;;;15.60;1.00;;;;;;5098015;28;20500;-58
2023/09/28 06:20:02;;;;;;;7.60;6.90;;;15.60;1.00;;;;;;5097786;28;20467;-58
2023/09/28 06:22:29;;;;;;;7.70;6.83;;;15.70;1.00;;;;;;5097950;28;20452;-56
2023/09/28 06:24:56;;;;;;;6.33;5.70;;;15.70;1.00;;;;;;5109514;28;20531;-58
2023/09/28 06:27:28;;;;;;;6.50;5.90;;;15.80;1.00;;;;;;5135638;27;20855;-57
2023/09/28 06:29:55;;;;;;;8.00;7.20;;;16.00;1.00;;;;;;5138157;27;20774;-56
2023/09/28 06:32:24;;;;;;;9.53;6.50;;;16.20;1.00;;;;;;5118216;28;20555;-54
2023/09/28 06:34:51;;;;;;;6.90;6.30;;;16.30;1.00;;;;;;5117648;28;20944;-57
2023/09/28 06:37:18;;;;;;;6.73;5.90;;;16.50;1.00;;;;;;5117650;28;20456;-57
2023/09/28 06:39:46;;;;;;;7.10;6.40;;;16.60;1.00;;;;;;5117404;28;20530;-56
2023/09/28 06:42:13;;;;;;;7.00;6.30;;;16.60;1.00;;;;;;5117795;28;20463;-57
2023/09/28 06:44:40;;;;;;;10.73;5.73;;;16.60;1.00;;;;;;5116970;28;20479;-58
2023/09/28 06:47:08;;;;;;;6.83;6.20;;;16.70;1.00;;;;;;5127765;27;20458;-57
2023/09/28 06:49:36;;;;;;;6.43;5.93;;;16.70;1.00;;;;;;5125869;27;20464;-58
2023/09/28 06:52:04;;;;;;;7.70;6.57;;;16.80;99.90;;;;;;5116742;28;20456;-57
2023/09/28 06:54:32;;;;;;;8.70;6.33;;;16.90;99.90;;;;;;5116744;28;20487;-57
2023/09/28 06:57:00;;;;;;;7.37;5.53;;;17.00;99.90;;;;;;5117083;28;20537;-55
2023/09/28 06:59:28;;;;;;;8.87;5.27;;;17.20;99.90;;;;;;5117498;28;20470;-57
2023/09/28 07:01:55;;;;;;;5.97;5.37;;;17.20;99.90;;;;;;5117201;28;20487;-57
2023/09/28 07:04:23;;;;;;;7.37;5.87;;;17.30;99.90;;;;;;5116956;28;20495;-58
2023/09/28 07:06:51;;;;;;;7.90;5.17;;;17.40;99.90;;;;;;5117886;28;20542;-57
2023/09/28 07:09:19;;;;;;;7.10;6.00;;;17.50;99.90;;;;;;5117793;28;20521;-58
2023/09/28 07:11:46;;;;;;;9.57;6.10;;;17.60;99.90;;;;;;5117396;28;20462;-58
2023/09/28 07:14:13;;;;;;;7.87;6.27;;;17.50;99.90;;;;;;5117350;28;20886;-55
2023/09/28 07:16:40;;;;;;;6.00;5.43;;;17.70;99.90;;;;;;5117193;28;20512;-57
2023/09/28 07:19:07;;;;;;;12.43;6.63;;;17.80;99.90;;;;;;5117675;28;20459;-57
2023/09/28 07:21:36;;;;;;;11.27;6.30;;;18.00;99.90;;;;;;5117398;28;20916;-56
2023/09/28 07:24:05;;;;;;;6.73;5.80;;;18.20;99.90;;;;;;5118276;28;20868;-58
2023/09/28 07:26:32;;;;;;;7.00;5.67;;;18.40;99.90;;;;;;5136017;27;20557;-58
2023/09/28 07:29:00;;;;;;;6.60;5.90;;;18.60;99.90;;;;;;5141330;27;20465;-58
2023/09/28 07:31:28;;;;;;;6.70;5.67;;;18.70;99.90;;;;;;5141773;27;20886;-57
2023/09/28 07:33:56;;;;;;;8.77;5.93;;;18.90;99.90;;;;;;5140481;27;20462;-59
2023/09/28 07:36:24;;;;;;;8.20;6.63;;;19.00;99.90;;;;;;5141158;27;20454;-58
2023/09/28 07:38:51;;;;;;;6.57;5.97;;;19.10;99.90;;;;;;5123841;27;20458;-58
2023/09/28 07:41:20;;;;;;;8.50;6.00;;;19.10;99.90;;;;;;5142106;27;20507;-58
2023/09/28 07:43:49;;;;;;;8.07;5.60;;;19.10;1.00;;;;;;5142053;27;20519;-57
2023/09/28 07:46:16;;;;;;;6.73;6.10;;;19.10;1.00;;;;;;5141626;27;20465;-59
2023/09/28 07:48:43;;;;;;;6.70;5.53;;;19.00;1.00;;;;;;5141428;27;20545;-58
2023/09/28 07:51:11;;;;;;;8.53;6.40;;;19.10;1.00;;;;;;5141696;27;20862;-58
2023/09/28 07:53:38;;;;;;;7.60;6.83;;;19.10;1.00;;;;;;5141619;27;20489;-59
2023/09/28 07:56:06;;;;;;;10.57;6.90;;;19.10;1.00;;;;;;5141082;27;20492;-58
2023/09/28 07:58:34;;;;;;;11.73;7.27;;;19.20;1.00;;;;;;5141133;27;20830;-58
2023/09/28 08:01:02;;;;;;;7.97;7.17;;;19.20;1.00;;;;;;5141616;27;20464;-59
2023/09/28 08:03:29;;;;;;;8.43;6.40;;;19.30;1.00;;;;;;5141033;27;20489;-58
2023/09/28 08:05:56;;;;;;;7.80;6.60;;;19.40;1.00;;;;;;5141125;27;20606;-59
2023/09/28 08:08:25;;;;;;;8.30;6.67;;;19.60;1.00;;;;;;5140689;27;20524;-58
2023/09/28 08:10:53;;;;;;;7.60;6.80;;;19.80;1.00;;;;;;5140637;27;20455;-58
2023/09/28 08:13:20;;;;;;;8.17;7.33;;;19.80;1.00;;;;;;5126363;27;20597;-58
2023/09/28 08:15:49;;;;;;;7.57;6.80;;;19.90;1.00;;;;;;5111765;28;20732;-58
2023/09/28 08:18:16;;;;;;;10.00;6.60;;;20.00;1.00;;;;;;5118819;27;20642;-59
2023/09/28 08:20:44;;;;;;;7.53;6.77;;;20.10;1.00;;;;;;5119435;28;20462;-58
2023/09/28 08:23:11;;;;;;;8.13;6.30;;;20.20;1.00;;;;;;5131031;27;20984;-58
2023/09/28 08:25:38;;;;;;;9.00;7.30;;;20.40;1.00;;;;;;5119421;28;21130;-59
2023/09/28 08:28:07;;;;;;;7.97;6.40;;;20.30;1.00;;;;;;5119076;28;20466;-59
2023/09/28 08:30:34;;;;;;;9.13;5.93;;;20.40;1.00;;;;;;5118245;28;20459;-59
2023/09/28 08:33:03;;;;;;;7.83;6.40;;;20.50;1.00;;;;;;5118395;28;20481;-59
2023/09/28 08:35:30;;;;;;;7.20;5.50;;;20.50;1.00;;;;;;5117290;28;20520;-58
2023/09/28 08:37:59;;;;;;;9.33;6.13;;;20.70;1.00;;;;;;5118182;28;20463;-58
2023/09/28 08:40:26;;;;;;;9.97;6.03;;;20.90;1.00;;;;;;5118176;28;20930;-59
2023/09/28 08:42:57;;;;;;;9.23;7.10;;;21.00;1.00;;;;;;5118348;28;20455;-59
2023/09/28 08:45:26;;;;;;;9.90;6.83;;;21.10;1.00;;;;;;5118534;27;20844;-58
2023/09/28 08:47:56;;;;;;;13.00;6.93;;;21.10;99.90;;;;;;5119306;27;20810;-60
2023/09/28 08:50:29;;;;;;;9.30;6.70;;;21.30;1.00;;;;;;5118022;28;20467;-59
2023/09/28 08:52:58;;;;;;;8.53;6.43;;;21.40;99.90;;;;;;5131958;27;20886;-59
2023/09/28 08:55:27;;;;;;;8.70;6.17;;;21.70;99.90;;;;;;5140538;27;20557;-58
2023/09/28 08:57:56;;;;;;;10.23;6.20;;;21.80;99.90;;;;;;5140137;27;20459;-59
2023/09/28 09:00:24;;;;;;;9.57;6.20;;;21.80;99.90;;;;;;5139274;27;20459;-59
2023/09/28 09:02:53;;;;;;;7.57;6.83;;;21.60;99.90;;;;;;5119828;27;20495;-58
2023/09/28 09:05:21;;;;;;;15.70;7.30;;;21.60;99.90;;;;;;5119163;28;20578;-59
2023/09/28 09:07:51;;;;;;;7.90;6.80;;;21.50;99.90;;;;;;5119389;28;20459;-59
2023/09/28 09:10:20;;;;;;;10.27;7.50;;;21.60;99.90;;;;;;5116897;28;20534;-59
2023/09/28 09:12:47;;;;;;;7.40;6.60;;;21.40;99.90;;;;;;5117271;28;21098;-58
2023/09/28 09:15:15;;;;;;;8.10;7.30;;;21.30;99.90;;;;;;5118392;28;20443;-58
2023/09/28 09:17:44;;;;;;;8.60;6.87;;;21.10;99.90;;;;;;5125827;27;20906;-59
2023/09/28 09:20:12;;;;;;;9.33;8.43;;;21.00;99.90;;;;;;5140104;27;20783;-59
2023/09/28 09:22:40;;;;;;;10.50;7.27;;;20.90;99.90;;;;;;5139827;27;20459;-58
2023/09/28 09:25:09;;;;;;;9.77;7.40;;;20.80;1.00;;;;;;5139289;27;20486;-58
2023/09/28 09:27:37;;;;;;;14.70;7.83;;;20.70;1.00;;;;;;5139362;27;20849;-58
2023/09/28 09:30:08;;;;;;;17.43;7.80;;;20.60;1.00;;;;;;5139550;27;20515;-59
2023/09/28 09:32:37;;;;;;;9.50;8.20;;;20.50;1.00;;;;;;5139662;27;20924;-58
2023/09/28 09:35:07;;;;;;;11.70;7.10;;;20.40;1.00;;;;;;5140040;27;20461;-58
2023/09/28 09:37:34;;;;;;;22.10;7.67;;;20.30;1.00;;;;;;5139717;27;20886;-59
2023/09/28 09:40:15;;;;;;;10.57;8.07;;;20.40;1.00;;;;;;5139215;27;20555;-58
2023/09/28 09:42:42;;;;;;;9.80;7.03;;;20.50;1.00;;;;;;5139721;27;20787;-58
2023/09/28 09:45:11;;;;;;;11.20;7.97;;;20.50;1.00;;;;;;5139621;27;20521;-58
2023/09/28 09:47:45;;;;;;;12.97;6.43;;;20.60;1.00;;;;;;5137591;27;20459;-59
2023/09/28 09:50:14;;;;;;;14.13;8.20;;;20.40;1.00;;;;;;5139002;27;20469;-58
2023/09/28 09:52:43;;;;;;;12.07;7.40;;;20.50;1.00;;;;;;5139000;27;20455;-59
2023/09/28 09:55:12;;;;;;;8.23;7.27;;;20.50;1.00;;;;;;5139164;27;20957;-59
2023/09/28 09:57:43;;;;;;;8.83;6.60;;;20.30;1.00;;;;;;5139017;27;20973;-59
2023/09/28 10:00:15;;;;;;;11.30;6.90;;;20.20;1.00;;;;;;5126540;27;20463;-58
2023/09/28 10:02:45;;;;;;;10.00;7.87;;;20.20;1.00;;;;;;5117725;28;20530;-58
2023/09/28 10:05:16;;;;;;;8.50;6.97;;;20.20;1.00;;;;;;5118590;28;20629;-58
2023/09/28 10:07:45;;;;;;;12.23;8.00;;;20.20;1.00;;;;;;5118581;28;20550;-58
2023/09/28 10:10:14;;;;;;;11.57;7.00;;;20.20;1.00;;;;;;5117498;28;20458;-59
2023/09/28 10:12:42;;;;;;;7.97;6.87;;;20.20;1.00;;;;;;5117724;28;20476;-58
2023/09/28 10:15:11;;;;;;;12.57;6.97;;;20.10;1.00;;;;;;5118332;28;20455;-58
2023/09/28 10:17:40;;;;;;;10.07;7.73;;;20.40;1.00;;;;;;5117447;28;20451;-59
2023/09/28 10:20:08;;;;;;;8.87;7.87;;;20.40;1.00;;;;;;5118295;28;20460;-59
2023/09/28 10:22:36;;;;;;;9.80;8.83;;;20.50;1.00;;;;;;5117254;28;20459;-58
2023/09/28 10:25:06;;;;;;;10.20;8.37;;;20.50;1.00;;;;;;5116522;28;21077;-56
2023/09/28 10:27:37;;;;;;;11.13;7.80;;;20.60;1.00;;;;;;5116879;28;20552;-58
2023/09/28 10:30:18;;;;;;;13.80;9.67;;;20.80;1.00;;;;;;5115891;28;20462;-60
2023/09/28 10:32:45;;;;;;;9.73;7.87;;;21.10;1.00;;;;;;5115192;27;20499;-59
2023/09/28 10:35:26;;;;;;;10.30;7.30;;;21.30;1.00;;;;;;5116712;28;20448;-58
2023/09/28 10:38:16;;;;;;;13.03;7.13;;;21.40;99.90;;;;;;5117633;28;20459;-59
2023/09/28 10:40:44;;;;;;;11.90;7.00;;;21.50;99.90;;;;;;5116695;28;20978;-58
2023/09/28 10:43:14;;;;;;;8.90;7.40;;;21.50;99.90;;;;;;5117830;28;20455;-58
2023/09/28 10:45:41;;;;;;;8.67;6.40;;;21.70;99.90;;;;;;5118092;28;20571;-59
2023/09/28 10:48:09;;;;;;;9.03;7.20;;;21.70;99.90;;;;;;5117487;28;20748;-59
2023/09/28 10:50:39;;;;;;;9.27;6.20;;;21.80;99.90;;;;;;5117642;28;20980;-59
2023/09/28 10:53:06;;;;;;;9.23;6.83;;;21.90;99.90;;;;;;5137478;27;20459;-59
2023/09/28 10:55:34;;;;;;;7.70;6.60;;;22.10;99.90;;;;;;5137106;27;20450;-59
2023/09/28 10:58:05;;;;;;;8.77;6.40;;;22.10;68.70;;;;;;5136239;27;20457;-59
2023/09/28 11:00:37;;;;;;;8.43;5.93;;;22.10;99.90;;;;;;5136567;27;20455;-58
2023/09/28 11:03:05;;;;;;;12.30;5.73;;;22.10;1.00;;;;;;5136549;27;20486;-60
2023/09/28 11:05:32;;;;;;;8.20;6.03;;;22.00;99.90;;;;;;5137567;27;20494;-58
2023/09/28 11:08:03;;;;;;;9.97;6.60;;;22.20;99.90;;;;;;5137164;27;20855;-59
2023/09/28 11:10:31;;;;;;;8.10;6.70;;;21.90;35.40;;;;;;5135460;27;20459;-59
2023/09/28 11:12:58;;;;;;;9.40;6.57;;;21.70;66.60;;;;;;5136517;27;20495;-59
2023/09/28 11:15:29;;;;;;;8.47;6.13;;;21.70;99.90;;;;;;5136638;27;20450;-59
2023/09/28 11:17:58;;;;;;;10.17;6.23;;;21.70;99.90;;;;;;5136885;27;20462;-58
2023/09/28 11:20:26;;;;;;;9.30;6.43;;;21.80;99.90;;;;;;5137758;27;20797;-59
2023/09/28 11:22:57;;;;;;;9.47;6.80;;;22.00;99.90;;;;;;5137924;27;20450;-58
2023/09/28 11:25:26;;;;;;;10.43;6.30;;;22.20;99.90;;;;;;5138110;27;20498;-60
2023/09/28 11:27:54;;;;;;;8.37;6.80;;;22.60;27.10;;;;;;5137525;27;20498;-59
2023/09/28 11:30:21;;;;;;;9.10;6.70;;;22.70;99.90;;;;;;5137103;27;20570;-59
2023/09/28 11:32:51;;;;;;;7.70;6.23;;;23.00;33.80;;;;;;5137250;27;20465;-58
2023/09/28 11:35:25;;;;;;;9.83;6.63;;;23.10;1.00;;;;;;5137726;27;20499;-59
2023/09/28 11:37:53;;;;;;;7.03;6.33;;;23.10;1.00;;;;;;5137325;27;20875;-59
2023/09/28 11:40:24;;;;;;;7.50;6.43;;;23.00;75.80;;;;;;5137577;27;20455;-59
2023/09/28 11:42:53;;;;;;;8.37;6.63;;;23.10;1.00;;;;;;5136444;27;20883;-58
2023/09/28 11:45:27;;;;;;;9.83;6.97;;;23.30;99.90;;;;;;5135885;27;20493;-60
2023/09/28 11:47:55;;;;;;;9.60;6.47;;;23.50;1.00;;;;;;5135993;27;20455;-59
2023/09/28 11:50:28;;;;;;;8.23;6.43;;;23.20;1.00;;;;;;5135540;27;20478;-59
2023/09/28 11:52:55;;;;;;;10.03;6.43;;;23.30;1.00;;;;;;5136328;27;20461;-59
2023/09/28 11:55:23;;;;;;;8.27;6.10;;;23.30;1.00;;;;;;5136146;27;20839;-60
2023/09/28 11:57:50;;;;;;;10.17;5.90;;;23.30;1.00;;;;;;5137060;27;20482;-58
2023/09/28 12:00:19;;;;;;;10.00;6.27;;;23.20;1.00;;;;;;5137208;27;20461;-59
2023/09/28 12:02:48;;;;;;;6.83;5.87;;;23.50;1.00;;;;;;5136822;27;20486;-59
2023/09/28 12:05:17;;;;;;;6.50;5.67;;;23.90;1.00;;;;;;5137827;27;20895;-59
2023/09/28 12:07:46;;;;;;;7.57;5.87;;;24.10;1.00;;;;;;5137826;27;20493;-59
2023/09/28 12:10:14;;;;;;;11.70;7.00;;;23.90;99.90;;;;;;5138364;27;20465;-58
2023/09/28 12:12:41;;;;;;;7.73;6.73;;;23.70;99.90;;;;;;5141319;27;20793;-58
2023/09/28 12:15:11;;;;;;;9.30;7.50;;;23.70;1.00;;;;;;5140716;27;20529;-59
2023/09/28 12:17:39;;;;;;;7.80;7.00;;;23.70;1.00;;;;;;5141374;27;20450;-58
2023/09/28 12:20:09;;;;;;;8.47;6.13;;;23.70;1.00;;;;;;5140723;27;20454;-58
2023/09/28 12:22:36;;;;;;;7.63;5.73;;;23.60;1.00;;;;;;5141049;27;20490;-58
2023/09/28 12:25:08;;;;;;;7.17;6.47;;;23.60;1.00;;;;;;5140819;27;20454;-56
2023/09/28 12:27:36;;;;;;;9.73;7.40;;;23.70;1.00;;;;;;5141108;27;20766;-58
2023/09/28 12:30:04;;;;;;;8.53;7.00;;;23.80;1.00;;;;;;5140699;27;20879;-58
2023/09/28 12:32:33;;;;;;;8.80;7.30;;;23.80;1.00;;;;;;5140410;27;20516;-58
2023/09/28 12:35:01;;;;;;;7.83;7.03;;;23.70;1.00;;;;;;5141083;27;20824;-59
2023/09/28 12:37:28;;;;;;;10.40;8.07;;;23.60;1.00;;;;;;5140716;27;20755;-57
2023/09/28 12:39:56;;;;;;;8.73;7.50;;;23.60;1.00;;;;;;5140504;27;20454;-58
2023/09/28 12:42:25;;;;;;;8.10;7.40;;;23.80;99.90;;;;;;5140628;27;20795;-59
2023/09/28 12:44:52;;;;;;;9.13;6.93;;;23.80;1.00;;;;;;5121494;27;20467;-58
2023/09/28 12:47:20;;;;;;;9.73;7.10;;;24.00;99.90;;;;;;5119960;28;20570;-58
2023/09/28 12:49:48;;;;;;;9.60;8.07;;;23.90;99.90;;;;;;5119986;28;20546;-58
2023/09/28 12:52:17;;;;;;;8.80;8.00;;;23.90;99.90;;;;;;5119187;28;20460;-59
2023/09/28 12:54:46;;;;;;;9.70;7.97;;;24.00;1.00;;;;;;5119618;28;20542;-58